createdAt,value
2023-02-11T00:00:35.693Z,22.35
2023-02-11T00:02:37.476Z,21.77
2023-02-11T00:04:39.220Z,23.27
2023-02-11T00:06:40.967Z,23.25
2023-02-11T00:08:43.000Z,23.40
2023-02-11T00:10:46.446Z,22.05
2023-02-11T00:12:48.077Z,20.73
2023-02-11T00:14:49.816Z,18.90
2023-02-11T00:16:51.539Z,21.83
2023-02-11T00:18:54.203Z,21.75
2023-02-11T00:20:55.860Z,20.15
2023-02-11T00:22:57.459Z,19.27
2023-02-11T00:24:59.123Z,22.17
2023-02-11T00:27:00.818Z,21.60
2023-02-11T00:29:03.140Z,21.92
2023-02-11T00:31:05.050Z,20.27
2023-02-11T00:33:06.994Z,22.55
2023-02-11T00:35:08.841Z,19.88
2023-02-11T00:37:12.148Z,22.65
2023-02-11T00:39:13.794Z,22.42
2023-02-11T00:41:16.363Z,21.95
2023-02-11T00:43:18.025Z,20.85
2023-02-11T00:45:21.405Z,19.98
2023-02-11T00:47:23.117Z,21.15
2023-02-11T00:49:25.372Z,20.80
2023-02-11T00:51:28.434Z,22.98
2023-02-11T00:53:30.643Z,26.45
2023-02-11T00:55:32.377Z,25.77
2023-02-11T00:57:34.060Z,23.30
2023-02-11T00:59:35.731Z,26.05
2023-02-11T01:01:37.527Z,23.65
2023-02-11T01:03:39.656Z,21.60
2023-02-11T01:05:41.669Z,23.88
2023-02-11T01:07:43.421Z,22.38
2023-02-11T01:09:45.098Z,21.27
2023-02-11T01:11:48.478Z,20.73
2023-02-11T01:13:50.807Z,18.00
2023-02-11T01:15:52.804Z,20.52
2023-02-11T01:17:54.740Z,21.27
2023-02-11T01:19:56.426Z,20.77
2023-02-11T01:21:58.122Z,23.73
2023-02-11T01:23:59.723Z,22.13
2023-02-11T01:26:01.451Z,21.15
2023-02-11T01:28:03.187Z,21.30
2023-02-11T01:30:06.546Z,20.35
2023-02-11T01:32:08.288Z,19.13
2023-02-11T01:34:09.977Z,20.17
2023-02-11T01:36:12.106Z,21.60
2023-02-11T01:38:22.821Z,20.00
2023-02-11T01:40:24.525Z,21.27
2023-02-11T01:42:26.125Z,19.90
2023-02-11T01:44:33.965Z,20.08
2023-02-11T01:46:37.846Z,21.20
2023-02-11T01:48:42.994Z,18.85
2023-02-11T01:50:45.796Z,19.02
2023-02-11T01:52:48.043Z,18.83
2023-02-11T01:55:10.711Z,20.45
2023-02-11T01:57:22.238Z,18.38
2023-02-11T02:00:05.326Z,19.35
2023-02-11T02:02:09.719Z,21.70
2023-02-11T02:04:11.746Z,20.08
2023-02-11T02:06:25.217Z,19.65
2023-02-11T02:08:52.716Z,18.10
2023-02-11T02:10:56.660Z,17.83
2023-02-11T02:12:58.350Z,18.23
2023-02-11T02:15:36.907Z,18.33
2023-02-11T02:17:45.020Z,18.23
2023-02-11T02:20:11.956Z,19.73
2023-02-11T02:22:51.616Z,19.48
2023-02-11T02:25:25.676Z,17.88
2023-02-11T02:27:30.240Z,17.63
2023-02-11T02:30:03.711Z,19.52
2023-02-11T02:32:46.419Z,18.85
2023-02-11T02:34:53.711Z,21.08
2023-02-11T02:37:15.365Z,19.27
2023-02-11T02:39:22.748Z,18.23
2023-02-11T02:41:29.204Z,18.95
2023-02-11T02:43:31.593Z,19.85
2023-02-11T02:45:33.508Z,20.67
2023-02-11T02:47:35.154Z,17.40
2023-02-11T02:49:36.772Z,20.58
2023-02-11T02:52:05.466Z,18.30
2023-02-11T02:54:34.309Z,15.68
2023-02-11T02:56:57.334Z,18.75
2023-02-11T02:59:33.173Z,16.23
2023-02-11T03:02:13.347Z,16.95
2023-02-11T03:04:20.247Z,17.42
2023-02-11T03:06:51.214Z,18.83
2023-02-11T03:08:59.325Z,19.85
2023-02-11T03:11:01.757Z,17.30
2023-02-11T03:13:04.593Z,20.23
2023-02-11T03:15:07.427Z,17.58
2023-02-11T03:17:10.120Z,19.73
2023-02-11T03:19:20.122Z,17.25
2023-02-11T03:21:22.705Z,16.77
2023-02-11T03:23:33.540Z,17.85
2023-02-11T03:25:49.505Z,19.23
2023-02-11T03:28:04.803Z,18.05
2023-02-11T03:30:29.082Z,18.65
2023-02-11T03:32:45.633Z,17.25
2023-02-11T03:34:49.971Z,16.92
2023-02-11T03:36:57.081Z,18.60
2023-02-11T03:39:00.638Z,18.52
2023-02-11T03:41:05.122Z,18.77
2023-02-11T03:43:22.789Z,16.42
2023-02-11T03:45:25.493Z,17.98
2023-02-11T03:47:28.643Z,16.58
2023-02-11T03:49:30.578Z,18.17
2023-02-11T03:51:33.429Z,17.92
2023-02-11T03:53:35.719Z,20.48
2023-02-11T03:55:39.479Z,19.35
2023-02-11T03:57:41.273Z,15.63
2023-02-11T03:59:57.473Z,18.83
2023-02-11T04:01:59.666Z,18.42
2023-02-11T04:04:01.302Z,16.17
2023-02-11T04:06:03.026Z,18.10
2023-02-11T04:08:04.922Z,18.70
2023-02-11T04:10:07.204Z,18.02
2023-02-11T04:12:09.000Z,23.52
2023-02-11T04:14:10.769Z,23.27
2023-02-11T04:16:12.519Z,22.45
2023-02-11T04:18:14.200Z,19.23
2023-02-11T04:20:16.041Z,17.38
2023-02-11T04:22:17.702Z,16.48
2023-02-11T04:24:19.389Z,16.15
2023-02-11T04:26:21.028Z,19.35
2023-02-11T04:28:22.819Z,16.75
2023-02-11T04:30:24.727Z,16.38
2023-02-11T04:32:26.454Z,16.67
2023-02-11T04:34:28.158Z,15.35
2023-02-11T04:36:30.121Z,17.17
2023-02-11T04:38:31.783Z,17.30
2023-02-11T04:40:33.469Z,16.83
2023-02-11T04:42:35.082Z,18.42
2023-02-11T04:44:36.751Z,18.38
2023-02-11T04:46:38.534Z,16.33
2023-02-11T04:48:40.189Z,17.08
2023-02-11T04:50:42.004Z,15.02
2023-02-11T04:52:43.608Z,15.27
2023-02-11T04:54:45.365Z,17.13
2023-02-11T04:56:47.096Z,16.33
2023-02-11T04:58:48.730Z,16.95
2023-02-11T05:00:50.454Z,16.77
2023-02-11T05:02:52.106Z,14.00
2023-02-11T05:04:53.719Z,15.00
2023-02-11T05:06:58.299Z,15.25
2023-02-11T05:09:00.260Z,15.10
2023-02-11T05:11:02.362Z,15.50
2023-02-11T05:13:04.161Z,13.98
2023-02-11T05:15:06.201Z,12.98
2023-02-11T05:17:08.221Z,15.38
2023-02-11T05:19:10.398Z,15.18
2023-02-11T05:21:18.049Z,15.05
2023-02-11T05:23:19.705Z,14.37
2023-02-11T05:25:21.481Z,13.43
2023-02-11T05:27:23.153Z,13.90
2023-02-11T05:29:24.837Z,14.48
2023-02-11T05:31:26.581Z,14.88
2023-02-11T05:33:28.578Z,13.68
2023-02-11T05:35:30.244Z,13.30
2023-02-11T05:37:32.039Z,14.80
2023-02-11T05:39:33.716Z,13.27
2023-02-11T05:41:35.469Z,15.00
2023-02-11T05:43:37.309Z,12.63
2023-02-11T05:45:38.973Z,14.45
2023-02-11T05:47:40.639Z,15.38
2023-02-11T05:49:42.304Z,13.90
2023-02-11T05:51:44.038Z,14.68
2023-02-11T05:53:45.651Z,14.07
2023-02-11T05:55:47.443Z,14.80
2023-02-11T05:57:49.198Z,12.65
2023-02-11T05:59:50.874Z,13.57
2023-02-11T06:01:52.545Z,13.70
2023-02-11T06:03:55.104Z,14.77
2023-02-11T06:05:56.803Z,14.80
2023-02-11T06:07:58.719Z,13.82
2023-02-11T06:10:00.534Z,14.55
2023-02-11T06:12:02.244Z,14.60
2023-02-11T06:14:04.308Z,13.43
2023-02-11T06:16:06.256Z,14.65
2023-02-11T06:18:08.052Z,14.73
2023-02-11T06:20:10.704Z,14.98
2023-02-11T06:22:12.412Z,13.85
2023-02-11T06:24:14.038Z,13.60
2023-02-11T06:26:21.857Z,12.20
2023-02-11T06:28:23.550Z,14.27
2023-02-11T06:30:25.327Z,11.85
2023-02-11T06:32:45.748Z,13.90
2023-02-11T06:34:47.680Z,14.50
2023-02-11T06:36:49.324Z,12.50
2023-02-11T06:38:52.326Z,13.90
2023-02-11T06:40:53.986Z,13.52
2023-02-11T06:42:55.821Z,14.95
2023-02-11T06:44:57.483Z,13.85
2023-02-11T06:46:59.186Z,12.88
2023-02-11T06:49:00.923Z,14.45
2023-02-11T06:51:07.041Z,13.38
2023-02-11T06:53:08.710Z,13.55
2023-02-11T06:55:10.416Z,13.20
2023-02-11T06:57:12.065Z,14.20
2023-02-11T06:59:17.910Z,14.65
2023-02-11T07:01:19.726Z,12.82
2023-02-11T07:03:21.465Z,13.52
2023-02-11T07:05:23.153Z,14.32
2023-02-11T07:07:24.917Z,11.88
2023-02-11T07:09:26.585Z,12.52
2023-02-11T07:11:29.119Z,14.77
2023-02-11T07:13:30.765Z,13.40
2023-02-11T07:15:32.790Z,13.63
2023-02-11T07:17:35.679Z,13.10
2023-02-11T07:19:37.400Z,12.93
2023-02-11T07:21:39.142Z,12.75
2023-02-11T07:23:41.301Z,13.75
2023-02-11T07:25:42.953Z,13.23
2023-02-11T07:27:44.875Z,15.40
2023-02-11T07:29:47.080Z,16.33
2023-02-11T07:31:49.031Z,15.23
2023-02-11T07:33:53.075Z,15.65
2023-02-11T07:35:54.761Z,15.73
2023-02-11T07:37:56.371Z,15.98
2023-02-11T07:39:58.024Z,15.50
2023-02-11T07:42:00.239Z,15.00
2023-02-11T07:44:03.380Z,16.90
2023-02-11T07:46:11.345Z,16.33
2023-02-11T07:48:12.988Z,17.77
2023-02-11T07:50:15.765Z,14.95
2023-02-11T07:52:17.512Z,14.63
2023-02-11T07:54:19.120Z,13.40
2023-02-11T07:56:21.575Z,13.73
2023-02-11T07:58:23.149Z,15.15
2023-02-11T08:00:24.827Z,13.45
2023-02-11T08:02:26.505Z,14.68
2023-02-11T08:04:28.471Z,14.65
2023-02-11T08:06:32.329Z,12.85
2023-02-11T08:08:34.234Z,14.50
2023-02-11T08:10:37.084Z,16.05
2023-02-11T08:12:38.678Z,15.02
2023-02-11T08:14:40.372Z,15.00
2023-02-11T08:16:42.250Z,12.85
2023-02-11T08:18:43.859Z,13.80
2023-02-11T08:20:45.517Z,12.43
2023-02-11T08:22:47.366Z,12.63
2023-02-11T08:24:51.405Z,15.02
2023-02-11T08:26:53.955Z,12.80
2023-02-11T08:28:57.031Z,13.80
2023-02-11T08:30:58.763Z,13.50
2023-02-11T08:33:00.577Z,14.02
2023-02-11T08:35:02.219Z,14.40
2023-02-11T08:37:03.859Z,11.57
2023-02-11T08:39:19.359Z,13.40
2023-02-11T08:41:21.883Z,12.30
2023-02-11T08:43:23.661Z,13.85
2023-02-11T08:45:25.385Z,12.80
2023-02-11T08:47:27.062Z,12.27
2023-02-11T08:49:30.336Z,12.60
2023-02-11T08:51:32.088Z,11.45
2023-02-11T08:53:33.877Z,14.05
2023-02-11T08:55:35.667Z,13.77
2023-02-11T08:57:37.317Z,12.57
2023-02-11T08:59:40.125Z,11.25
2023-02-11T09:01:41.958Z,12.63
2023-02-11T09:03:44.445Z,11.85
2023-02-11T09:05:48.796Z,12.55
2023-02-11T09:07:50.414Z,12.30
2023-02-11T09:09:52.071Z,13.43
2023-02-11T09:11:57.269Z,12.23
2023-02-11T09:13:59.052Z,12.65
2023-02-11T09:16:01.781Z,12.43
2023-02-11T09:18:04.132Z,11.70
2023-02-11T09:20:06.157Z,11.45
2023-02-11T09:22:08.030Z,12.02
2023-02-11T09:24:10.256Z,12.35
2023-02-11T09:26:19.205Z,11.13
2023-02-11T09:28:20.870Z,13.07
2023-02-11T09:30:22.725Z,12.93
2023-02-11T09:32:24.331Z,10.82
2023-02-11T09:34:26.843Z,13.40
2023-02-11T09:36:31.175Z,12.05
2023-02-11T09:38:33.419Z,11.10
2023-02-11T09:40:43.287Z,11.70
2023-02-11T09:43:06.870Z,11.82
2023-02-11T09:45:23.384Z,11.80
2023-02-11T09:47:28.606Z,10.93
2023-02-11T09:49:51.529Z,10.50
2023-02-11T09:52:01.904Z,13.30
2023-02-11T09:54:09.398Z,11.60
2023-02-11T09:56:13.626Z,11.63
2023-02-11T09:58:27.080Z,9.93
2023-02-11T10:00:32.687Z,11.60
2023-02-11T10:03:11.576Z,12.40
2023-02-11T10:05:22.103Z,12.35
2023-02-11T10:07:34.075Z,10.32
2023-02-11T10:09:45.712Z,10.82
2023-02-11T10:12:13.130Z,10.60
2023-02-11T10:14:48.835Z,10.70
2023-02-11T10:17:18.212Z,9.77
2023-02-11T10:19:19.828Z,12.98
2023-02-11T10:21:47.807Z,11.88
2023-02-11T10:23:52.480Z,11.35
2023-02-11T10:25:56.756Z,12.50
2023-02-11T10:28:00.158Z,10.95
2023-02-11T10:30:10.349Z,12.02
2023-02-11T10:32:40.295Z,11.65
2023-02-11T10:34:42.517Z,11.75
2023-02-11T10:36:45.321Z,12.20
2023-02-11T10:38:49.838Z,12.27
2023-02-11T10:40:52.284Z,11.10
2023-02-11T10:42:59.158Z,11.57
2023-02-11T10:45:04.080Z,12.45
2023-02-11T10:47:13.217Z,14.50
2023-02-11T10:49:43.611Z,12.30
2023-02-11T10:51:45.335Z,11.55
2023-02-11T10:54:08.264Z,13.18
2023-02-11T10:56:13.308Z,15.13
2023-02-11T10:58:23.660Z,13.75
2023-02-11T11:00:39.193Z,12.73
2023-02-11T11:02:44.188Z,11.68
2023-02-11T11:04:46.420Z,14.35
2023-02-11T11:06:48.241Z,16.48
2023-02-11T11:08:51.563Z,15.23
2023-02-11T11:11:09.154Z,14.07
2023-02-11T11:13:28.166Z,14.70
2023-02-11T11:15:31.731Z,12.88
2023-02-11T11:17:33.516Z,14.75
2023-02-11T11:19:36.842Z,13.18
2023-02-11T11:21:42.740Z,13.88
2023-02-11T11:23:50.865Z,13.07
2023-02-11T11:26:07.408Z,13.82
2023-02-11T11:28:25.133Z,12.88
2023-02-11T11:30:41.836Z,14.50
2023-02-11T11:32:43.865Z,11.95
2023-02-11T11:34:50.806Z,14.80
2023-02-11T11:36:52.714Z,13.52
2023-02-11T11:38:59.064Z,15.30
2023-02-11T11:41:23.966Z,11.70
2023-02-11T11:43:25.751Z,14.13
2023-02-11T11:45:27.723Z,14.30
2023-02-11T11:47:50.580Z,14.75
2023-02-11T11:50:10.784Z,12.95
2023-02-11T11:52:22.676Z,12.55
2023-02-11T11:54:25.159Z,12.55
2023-02-11T11:56:31.123Z,15.95
2023-02-11T11:58:33.239Z,14.02
2023-02-11T12:00:44.131Z,13.93
2023-02-11T12:03:09.656Z,13.50
2023-02-11T12:05:23.068Z,12.95
2023-02-11T12:07:48.120Z,13.23
2023-02-11T12:09:59.179Z,13.73
2023-02-11T12:12:27.438Z,12.70
2023-02-11T12:14:53.970Z,14.90
2023-02-11T12:17:04.852Z,11.20
2023-02-11T12:19:26.884Z,12.93
2023-02-11T12:21:47.402Z,11.93
2023-02-11T12:23:58.201Z,12.55
2023-02-11T12:26:20.991Z,13.73
2023-02-11T12:28:27.160Z,12.32
2023-02-11T12:30:56.406Z,15.15
2023-02-11T12:33:20.479Z,14.98
2023-02-11T12:35:22.158Z,13.10
2023-02-11T12:37:42.595Z,13.63
2023-02-11T12:39:51.180Z,12.57
2023-02-11T12:42:33.127Z,13.98
2023-02-11T12:45:05.533Z,12.30
2023-02-11T12:47:48.615Z,11.45
2023-02-11T12:50:05.332Z,11.82
2023-02-11T12:52:22.879Z,12.30
2023-02-11T12:54:28.866Z,10.43
2023-02-11T12:56:40.286Z,11.48
2023-02-11T12:58:45.395Z,12.02
2023-02-11T13:01:11.174Z,10.82
2023-02-11T13:03:21.726Z,10.38
2023-02-11T13:05:32.190Z,9.48
2023-02-11T13:07:40.727Z,10.35
2023-02-11T13:09:52.826Z,11.80
2023-02-11T13:11:57.508Z,11.45
2023-02-11T13:14:03.646Z,10.77
2023-02-11T13:16:08.294Z,10.32
2023-02-11T13:18:27.605Z,10.80
2023-02-11T13:20:46.558Z,10.60
2023-02-11T13:23:06.398Z,9.57
2023-02-11T13:25:32.610Z,12.45
2023-02-11T13:27:44.064Z,11.25
2023-02-11T13:30:22.288Z,11.07
2023-02-11T13:32:23.980Z,10.65
2023-02-11T13:34:51.714Z,11.73
2023-02-11T13:36:57.669Z,11.90
2023-02-11T13:39:05.299Z,10.88
2023-02-11T13:41:20.884Z,11.23
2023-02-11T13:43:24.724Z,10.60
2023-02-11T13:45:45.841Z,12.20
2023-02-11T13:47:52.410Z,11.45
2023-02-11T13:49:54.586Z,11.18
2023-02-11T13:51:57.100Z,11.70
2023-02-11T13:53:58.889Z,10.82
2023-02-11T13:56:13.101Z,11.13
2023-02-11T13:58:14.816Z,9.38
2023-02-11T14:00:34.783Z,9.52
2023-02-11T14:02:55.493Z,9.93
2023-02-11T14:05:24.914Z,10.48
2023-02-11T14:07:54.309Z,8.20
2023-02-11T14:09:57.088Z,9.15
2023-02-11T14:12:23.678Z,10.60
2023-02-11T14:14:36.162Z,9.98
2023-02-11T14:17:04.690Z,9.40
2023-02-11T14:19:06.886Z,10.80
2023-02-11T14:21:38.583Z,11.43
2023-02-11T14:23:41.267Z,11.70
2023-02-11T14:25:43.970Z,11.25
2023-02-11T14:28:00.874Z,12.48
2023-02-11T14:30:23.774Z,12.13
2023-02-11T14:32:47.766Z,9.88
2023-02-11T14:35:10.858Z,11.63
2023-02-11T14:37:22.775Z,11.85
2023-02-11T14:39:32.904Z,10.90
2023-02-11T14:41:40.383Z,11.35
2023-02-11T14:43:47.993Z,10.27
2023-02-11T14:45:55.226Z,10.68
2023-02-11T14:48:08.209Z,9.65
2023-02-11T14:50:18.556Z,11.85
2023-02-11T14:52:27.868Z,9.68
2023-02-11T14:54:29.880Z,10.05
2023-02-11T14:56:34.356Z,11.00
2023-02-11T14:58:36.151Z,9.05
2023-02-11T15:00:38.240Z,10.43
2023-02-11T15:02:40.225Z,10.25
2023-02-11T15:04:42.317Z,9.70
2023-02-11T15:06:49.745Z,10.60
2023-02-11T15:09:16.322Z,9.55
2023-02-11T15:11:20.770Z,9.32
2023-02-11T15:13:27.174Z,11.43
2023-02-11T15:15:29.591Z,10.45
2023-02-11T15:17:32.344Z,8.93
2023-02-11T15:19:42.426Z,10.80
2023-02-11T15:21:45.506Z,9.88
2023-02-11T15:24:01.123Z,8.55
2023-02-11T15:26:05.835Z,9.63
2023-02-11T15:28:21.026Z,9.50
2023-02-11T15:30:22.836Z,10.65
2023-02-11T15:32:26.028Z,10.50
2023-02-11T15:34:27.699Z,9.13
2023-02-11T15:36:34.400Z,8.60
2023-02-11T15:38:35.996Z,8.93
2023-02-11T15:40:37.827Z,9.88
2023-02-11T15:42:52.200Z,10.13
2023-02-11T15:45:16.473Z,10.05
2023-02-11T15:47:20.499Z,10.48
2023-02-11T15:49:23.279Z,8.80
2023-02-11T15:51:38.063Z,9.75
2023-02-11T15:53:43.356Z,9.10
2023-02-11T15:55:46.496Z,10.90
2023-02-11T15:57:54.843Z,10.15
2023-02-11T15:59:56.676Z,9.38
2023-02-11T16:02:05.147Z,10.82
2023-02-11T16:04:06.986Z,10.52
2023-02-11T16:06:19.187Z,9.98
2023-02-11T16:08:26.392Z,11.50
2023-02-11T16:10:34.387Z,10.73
2023-02-11T16:12:36.212Z,10.48
2023-02-11T16:14:39.303Z,10.60
2023-02-11T16:16:41.058Z,11.80
2023-02-11T16:18:52.032Z,12.30
2023-02-11T16:21:01.643Z,13.65
2023-02-11T16:23:03.739Z,11.65
2023-02-11T16:25:05.842Z,12.95
2023-02-11T16:27:38.511Z,9.45
2023-02-11T16:29:40.588Z,13.00
2023-02-11T16:31:44.931Z,9.10
2023-02-11T16:33:47.032Z,11.07
2023-02-11T16:35:48.957Z,10.75
2023-02-11T16:37:50.536Z,10.75
2023-02-11T16:39:56.204Z,10.85
2023-02-11T16:41:58.434Z,10.90
2023-02-11T16:44:00.058Z,12.60
2023-02-11T16:46:01.704Z,11.10
2023-02-11T16:48:03.502Z,11.63
2023-02-11T16:50:09.286Z,11.32
2023-02-11T16:52:15.087Z,10.40
2023-02-11T16:54:17.542Z,11.27
2023-02-11T16:56:19.289Z,12.48
2023-02-11T16:58:20.988Z,14.07
2023-02-11T17:00:23.435Z,14.88
2023-02-11T17:02:33.957Z,14.45
2023-02-11T17:04:35.686Z,14.38
2023-02-11T17:06:37.405Z,14.02
2023-02-11T17:08:39.953Z,14.18
2023-02-11T17:10:41.589Z,12.93
2023-02-11T17:12:43.200Z,14.57
2023-02-11T17:14:44.831Z,15.77
2023-02-11T17:16:47.774Z,14.32
2023-02-11T17:18:49.642Z,13.68
2023-02-11T17:20:51.271Z,14.32
2023-02-11T17:22:52.973Z,12.82
2023-02-11T17:24:57.119Z,13.90
2023-02-11T17:26:58.937Z,12.98
2023-02-11T17:29:00.513Z,12.45
2023-02-11T17:31:07.413Z,12.00
2023-02-11T17:33:09.584Z,13.30
2023-02-11T17:35:11.150Z,13.25
2023-02-11T17:37:12.769Z,16.48
2023-02-11T17:39:14.508Z,22.17
2023-02-11T17:41:16.115Z,24.23
2023-02-11T17:43:17.734Z,26.92
2023-02-11T17:45:22.094Z,27.00
2023-02-11T17:47:24.484Z,22.80
2023-02-11T17:49:26.235Z,21.40
2023-02-11T17:51:31.036Z,23.50
2023-02-11T17:53:32.610Z,21.25
2023-02-11T17:55:34.938Z,19.85
2023-02-11T17:57:36.656Z,20.05
2023-02-11T17:59:39.101Z,19.25
2023-02-11T18:01:41.903Z,17.10
2023-02-11T18:03:43.508Z,19.63
2023-02-11T18:05:45.266Z,18.52
2023-02-11T18:07:48.524Z,18.38
2023-02-11T18:09:50.275Z,15.45
2023-02-11T18:11:52.712Z,17.80
2023-02-11T18:13:54.699Z,14.40
2023-02-11T18:16:03.099Z,12.65
2023-02-11T18:18:04.862Z,12.77
2023-02-11T18:20:07.456Z,15.05
2023-02-11T18:22:09.801Z,14.88
2023-02-11T18:24:11.733Z,14.10
2023-02-11T18:26:15.665Z,12.98
2023-02-11T18:28:17.279Z,12.25
2023-02-11T18:30:19.564Z,12.20
2023-02-11T18:32:21.235Z,12.48
2023-02-11T18:34:23.263Z,11.95
2023-02-11T18:36:24.942Z,12.60
2023-02-11T18:38:26.601Z,13.23
2023-02-11T18:40:28.222Z,13.20
2023-02-11T18:42:29.964Z,13.82
2023-02-11T18:44:31.698Z,13.45
2023-02-11T18:46:33.915Z,14.65
2023-02-11T18:48:35.744Z,17.02
2023-02-11T18:50:37.822Z,13.20
2023-02-11T18:52:39.816Z,14.27
2023-02-11T18:54:41.496Z,12.98
2023-02-11T18:56:43.192Z,14.43
2023-02-11T18:58:45.021Z,14.25
2023-02-11T19:00:48.233Z,14.23
2023-02-11T19:02:50.278Z,17.02
2023-02-11T19:04:51.987Z,19.48
2023-02-11T19:06:53.810Z,19.75
2023-02-11T19:08:59.712Z,18.10
2023-02-11T19:11:04.617Z,18.30
2023-02-11T19:13:06.269Z,18.73
2023-02-11T19:15:08.428Z,15.23
2023-02-11T19:17:12.594Z,15.20
2023-02-11T19:19:14.260Z,14.13
2023-02-11T19:21:15.908Z,14.60
2023-02-11T19:23:17.579Z,15.75
2023-02-11T19:25:19.412Z,13.85
2023-02-11T19:27:21.078Z,13.48
2023-02-11T19:29:22.889Z,11.52
2023-02-11T19:31:24.720Z,13.30
2023-02-11T19:33:26.528Z,12.88
2023-02-11T19:35:28.197Z,12.98
2023-02-11T19:37:29.904Z,15.88
2023-02-11T19:39:31.587Z,13.23
2023-02-11T19:41:33.828Z,14.80
2023-02-11T19:43:35.468Z,15.75
2023-02-11T19:45:37.865Z,12.90
2023-02-11T19:47:39.512Z,10.90
2023-02-11T19:49:41.139Z,13.25
2023-02-11T19:51:42.991Z,13.73
2023-02-11T19:53:45.280Z,11.43
2023-02-11T19:55:47.423Z,11.48
2023-02-11T19:57:51.968Z,11.10
2023-02-11T19:59:55.014Z,11.80
2023-02-11T20:01:57.709Z,10.95
2023-02-11T20:03:59.337Z,12.30
2023-02-11T20:06:04.924Z,12.18
2023-02-11T20:08:06.575Z,13.93
2023-02-11T20:10:08.726Z,16.20
2023-02-11T20:12:12.108Z,20.13
2023-02-11T20:14:15.221Z,17.88
2023-02-11T20:16:19.756Z,14.30
2023-02-11T20:18:21.455Z,19.73
2023-02-11T20:20:23.082Z,17.48
2023-02-11T20:22:24.786Z,19.63
2023-02-11T20:24:26.671Z,17.52
2023-02-11T20:26:30.444Z,19.83
2023-02-11T20:28:32.147Z,19.67
2023-02-11T20:30:33.906Z,17.85
2023-02-11T20:32:38.554Z,17.65
2023-02-11T20:34:40.242Z,21.30
2023-02-11T20:36:42.081Z,19.45
2023-02-11T20:38:45.576Z,25.83
2023-02-11T20:40:47.266Z,28.38
2023-02-11T20:42:48.934Z,24.30
2023-02-11T20:44:50.798Z,24.23
2023-02-11T20:46:54.355Z,20.92
2023-02-11T20:48:57.089Z,22.42
2023-02-11T20:51:07.055Z,21.30
2023-02-11T20:53:11.351Z,20.10
2023-02-11T20:55:13.128Z,19.05
2023-02-11T20:57:14.792Z,19.45
2023-02-11T20:59:17.616Z,18.23
2023-02-11T21:01:23.668Z,17.75
2023-02-11T21:03:25.472Z,20.00
2023-02-11T21:05:27.314Z,17.80
2023-02-11T21:07:29.680Z,21.30
2023-02-11T21:09:33.322Z,21.35
2023-02-11T21:11:35.247Z,23.65
2023-02-11T21:13:38.030Z,21.35
2023-02-11T21:15:39.735Z,21.45
2023-02-11T21:17:41.577Z,19.58
2023-02-11T21:19:43.664Z,19.35
2023-02-11T21:21:45.615Z,16.73
2023-02-11T21:23:47.680Z,15.38
2023-02-11T21:25:49.576Z,14.70
2023-02-11T21:27:51.177Z,13.98
2023-02-11T21:29:54.523Z,13.07
2023-02-11T21:31:56.711Z,16.33
2023-02-11T21:33:59.623Z,15.02
2023-02-11T21:36:03.463Z,15.20
2023-02-11T21:38:05.145Z,14.73
2023-02-11T21:40:07.541Z,13.15
2023-02-11T21:42:09.381Z,14.77
2023-02-11T21:44:11.046Z,13.02
2023-02-11T21:46:14.968Z,13.57
2023-02-11T21:48:17.370Z,12.95
2023-02-11T21:50:19.461Z,12.98
2023-02-11T21:52:21.139Z,11.95
2023-02-11T21:54:25.810Z,11.18
2023-02-11T21:56:29.636Z,12.77
2023-02-11T21:58:31.327Z,11.38
2023-02-11T22:00:33.960Z,10.90
2023-02-11T22:02:38.039Z,13.55
2023-02-11T22:04:39.800Z,11.00
2023-02-11T22:06:41.434Z,10.57
2023-02-11T22:08:43.130Z,11.07
2023-02-11T22:10:44.847Z,9.10
2023-02-11T22:12:46.766Z,11.57
2023-02-11T22:14:48.379Z,11.30
2023-02-11T22:16:50.274Z,9.57
2023-02-11T22:18:52.888Z,12.45
2023-02-11T22:21:05.179Z,10.82
2023-02-11T22:23:06.841Z,11.32
2023-02-11T22:25:08.647Z,9.43
2023-02-11T22:27:10.334Z,10.98
2023-02-11T22:29:12.431Z,10.48
2023-02-11T22:31:18.413Z,11.70
2023-02-11T22:33:20.222Z,11.75
2023-02-11T22:35:24.526Z,13.65
2023-02-11T22:37:26.253Z,12.40
2023-02-11T22:39:28.574Z,14.25
2023-02-11T22:41:30.696Z,13.10
2023-02-11T22:43:32.608Z,14.02
2023-02-11T22:45:34.604Z,12.85
2023-02-11T22:47:37.655Z,13.63
2023-02-11T22:49:40.870Z,12.20
2023-02-11T22:51:42.509Z,12.90
2023-02-11T22:53:44.543Z,13.40
2023-02-11T22:55:46.295Z,13.75
2023-02-11T22:57:47.918Z,13.98
2023-02-11T22:59:49.644Z,13.13
2023-02-11T23:01:51.488Z,12.88
2023-02-11T23:03:53.171Z,14.60
2023-02-11T23:05:55.278Z,13.38
2023-02-11T23:07:57.070Z,13.85
2023-02-11T23:09:58.706Z,12.90
2023-02-11T23:12:00.365Z,12.75
2023-02-11T23:14:02.735Z,12.73
2023-02-11T23:16:07.161Z,14.80
2023-02-11T23:18:09.704Z,15.30
2023-02-11T23:20:11.798Z,14.23
2023-02-11T23:22:13.529Z,16.83
2023-02-11T23:24:15.267Z,13.57
2023-02-11T23:26:18.634Z,14.57
2023-02-11T23:28:20.402Z,14.27
2023-02-11T23:30:22.193Z,14.88
2023-02-11T23:32:23.927Z,14.15
2023-02-11T23:34:25.678Z,14.70
2023-02-11T23:36:27.814Z,12.77
2023-02-11T23:38:29.420Z,14.63
2023-02-11T23:40:31.172Z,15.55
2023-02-11T23:42:32.827Z,16.88
2023-02-11T23:44:34.592Z,15.80
2023-02-11T23:46:36.331Z,15.63
2023-02-11T23:48:38.641Z,14.45
2023-02-11T23:50:43.924Z,15.80
2023-02-11T23:52:45.861Z,12.85
2023-02-11T23:54:48.320Z,15.70
2023-02-11T23:56:49.993Z,15.38
2023-02-11T23:58:54.756Z,14.45
